Terminal Aerodrome Forecast
Issued by NWS

Home | Current Version | Previous Version | Text Only | Print | Product List | Glossary On
Versions: 1 2 3 4 5 6 7 8 9 10 11 12 13 14 15 16 17 18 19 20 21 22 23 24
000
FTUS43 KIND 231200 AAA
TAFBMG
TAF AMD
KBMG 231258Z 2313/2412 00000KT 3SM BR MIFG SKC
      TEMPO 2313/2314 1/4SM FG VV001
     FM231400 18004KT P6SM SCT250
     FM231900 22005KT P6SM SCT250
     FM240000 21001KT P6SM BKN250
     FM240600 19002KT P6SM BKN100
      AMD LTD TO CLD VIS AND WIND TIL 231300=

USA.gov is the U.S. government's official web portal to all federal, state and local government web resources and services.